Time;durP1;ratioP1;P1;durP2;ratioP2;P2;SDS_P1;SDS_P2;PMS_P1;PMS_P2;Temp;Humidity;BMP_temperature;BMP_pressure;BME280_temperature;BME280_humidity;BME280_pressure;Samples;Min_cycle;Max_cycle;Signal;HPM_P1;HPM_P2
2024/04/01 00:01:13;;;;;;;0.65;0.50;;;14.70;99.90;;;;;;10102339;28;20073;-65
2024/04/01 00:06:04;;;;;;;1.17;0.50;;;14.70;99.90;;;;;;10104252;28;20032;-65
2024/04/01 00:10:55;;;;;;;0.50;0.45;;;14.70;99.90;;;;;;10101873;28;20052;-65
2024/04/01 00:15:46;;;;;;;0.30;0.20;;;14.70;99.90;;;;;;10102691;28;20163;-65
2024/04/01 00:20:37;;;;;;;0.57;0.40;;;14.80;99.90;;;;;;10100939;28;20057;-66
2024/04/01 00:25:27;;;;;;;1.35;0.40;;;14.70;99.90;;;;;;10101620;28;20045;-65
2024/04/01 00:30:18;;;;;;;0.40;0.30;;;14.70;99.90;;;;;;10101036;28;20556;-65
2024/04/01 00:35:14;;;;;;;1.85;0.20;;;14.60;99.90;;;;;;10100898;28;20021;-65
2024/04/01 00:40:05;;;;;;;0.30;0.30;;;14.60;99.90;;;;;;10099291;28;20032;-66
2024/04/01 00:44:57;;;;;;;0.30;0.30;;;14.60;99.90;;;;;;10093974;28;20081;-66
2024/04/01 00:49:48;;;;;;;0.40;0.30;;;14.60;99.90;;;;;;10100362;28;20044;-66
2024/04/01 00:54:39;;;;;;;0.20;0.20;;;14.60;99.90;;;;;;10101072;28;20743;-65
2024/04/01 00:59:31;;;;;;;0.40;0.20;;;14.40;99.90;;;;;;10100772;28;20024;-65
2024/04/01 01:04:22;;;;;;;1.48;0.30;;;14.50;99.90;;;;;;10098581;28;20017;-65
2024/04/01 01:09:13;;;;;;;2.22;0.50;;;14.30;99.90;;;;;;10098669;28;20122;-65
2024/04/01 01:14:04;;;;;;;0.98;0.50;;;14.30;99.90;;;;;;10098841;28;20087;-66
2024/04/01 01:18:55;;;;;;;0.57;0.40;;;14.30;99.90;;;;;;10097226;28;20059;-66
2024/04/01 01:23:45;;;;;;;2.78;0.52;;;14.30;99.90;;;;;;10099551;28;20028;-65
2024/04/01 01:28:36;;;;;;;1.33;0.40;;;14.30;99.90;;;;;;10098833;28;20060;-66
2024/04/01 01:33:28;;;;;;;1.15;0.30;;;14.20;99.90;;;;;;10098531;28;20043;-65
2024/04/01 01:38:19;;;;;;;1.17;0.35;;;14.20;99.90;;;;;;10103390;28;20523;-67
2024/04/01 01:43:10;;;;;;;0.45;0.32;;;14.20;99.90;;;;;;10089653;28;20025;-66
2024/04/01 01:48:00;;;;;;;1.35;0.20;;;14.20;99.90;;;;;;10097268;28;20032;-66
2024/04/01 01:52:51;;;;;;;0.95;0.30;;;14.20;99.90;;;;;;10097789;28;20033;-65
2024/04/01 01:57:42;;;;;;;1.90;0.43;;;14.20;99.90;;;;;;10108417;28;20032;-65
2024/04/01 02:02:33;;;;;;;0.25;0.20;;;14.10;99.90;;;;;;10097718;28;20052;-66
2024/04/01 02:07:23;;;;;;;0.47;0.40;;;14.00;99.90;;;;;;10097256;28;20031;-66
2024/04/01 02:12:14;;;;;;;0.40;0.40;;;14.00;99.90;;;;;;10095626;28;20453;-65
2024/04/01 02:17:05;;;;;;;2.08;0.40;;;14.00;99.90;;;;;;10097082;28;20124;-65
2024/04/01 02:21:56;;;;;;;1.25;0.60;;;14.20;99.90;;;;;;10094222;28;20043;-65
2024/04/01 02:26:47;;;;;;;0.88;0.60;;;14.00;99.90;;;;;;10096646;28;20035;-67
2024/04/01 02:31:38;;;;;;;0.82;0.57;;;14.00;99.90;;;;;;10092401;28;20041;-65
2024/04/01 02:36:29;;;;;;;0.63;0.40;;;14.10;99.90;;;;;;10092629;28;20577;-65
2024/04/01 02:41:20;;;;;;;0.30;0.30;;;14.10;99.90;;;;;;10102634;28;20036;-66
2024/04/01 02:46:10;;;;;;;0.82;0.38;;;14.10;99.90;;;;;;10097531;28;20029;-65
2024/04/01 02:51:02;;;;;;;0.30;0.22;;;14.10;99.90;;;;;;10094731;28;20406;-65
2024/04/01 02:55:54;;;;;;;0.40;0.30;;;14.10;99.90;;;;;;10101930;28;20021;-66
2024/04/01 03:00:45;;;;;;;0.80;0.52;;;13.90;99.90;;;;;;10094620;28;20033;-66
2024/04/01 03:05:39;;;;;;;0.47;0.30;;;13.80;99.90;;;;;;10095192;28;20032;-64
2024/04/01 03:10:30;;;;;;;0.98;0.50;;;14.00;99.90;;;;;;10094944;28;20055;-66
2024/04/01 03:15:20;;;;;;;0.40;0.40;;;13.90;99.90;;;;;;10095841;28;20502;-65
2024/04/01 03:20:12;;;;;;;1.27;0.63;;;14.00;99.90;;;;;;10094570;28;20473;-64
2024/04/01 03:25:03;;;;;;;1.27;0.50;;;13.90;99.90;;;;;;10096086;28;20021;-65
2024/04/01 03:29:54;;;;;;;2.20;0.45;;;13.80;99.90;;;;;;10095063;28;20524;-66
2024/04/01 03:34:48;;;;;;;0.88;0.60;;;13.80;99.90;;;;;;10094982;28;20021;-67
2024/04/01 03:39:40;;;;;;;1.88;0.47;;;13.70;99.90;;;;;;10095005;28;20029;-66
2024/04/01 03:44:30;;;;;;;0.30;0.30;;;13.80;99.90;;;;;;10096220;28;20029;-67
2024/04/01 03:49:21;;;;;;;0.88;0.50;;;13.80;99.90;;;;;;10094480;28;20044;-66
2024/04/01 03:54:12;;;;;;;0.80;0.70;;;13.80;99.90;;;;;;10094979;28;20095;-67
2024/04/01 03:59:02;;;;;;;0.85;0.50;;;13.80;99.90;;;;;;10083086;28;20233;-66
2024/04/01 04:03:53;;;;;;;1.05;0.88;;;13.70;99.90;;;;;;10094019;28;20091;-65
2024/04/01 04:08:47;;;;;;;0.80;0.70;;;13.50;99.90;;;;;;10094265;28;20100;-67
2024/04/01 04:13:37;;;;;;;1.42;0.80;;;13.40;99.90;;;;;;10100016;28;20039;-65
2024/04/01 04:18:29;;;;;;;1.38;0.30;;;13.30;99.90;;;;;;10101239;28;20045;-65
2024/04/01 04:23:19;;;;;;;1.10;0.80;;;13.30;99.90;;;;;;10101915;28;20060;-65
2024/04/01 04:28:10;;;;;;;1.38;0.40;;;13.30;99.90;;;;;;10091977;28;20063;-65
2024/04/01 04:33:01;;;;;;;1.63;0.55;;;13.40;99.90;;;;;;10101338;28;20037;-67
2024/04/01 04:37:51;;;;;;;2.45;0.70;;;13.40;99.90;;;;;;10100736;28;20094;-65
2024/04/01 04:42:42;;;;;;;0.63;0.43;;;13.40;99.90;;;;;;10100826;28;20478;-66
2024/04/01 04:47:33;;;;;;;0.98;0.70;;;13.40;99.90;;;;;;10100310;28;20029;-65
2024/04/01 04:52:23;;;;;;;0.60;0.47;;;13.40;99.90;;;;;;10099593;28;20044;-66
2024/04/01 04:57:14;;;;;;;1.08;0.40;;;13.40;99.90;;;;;;10105071;28;20021;-65
2024/04/01 05:02:06;;;;;;;1.08;0.30;;;13.40;99.90;;;;;;10099119;28;20420;-65
2024/04/01 05:06:57;;;;;;;0.35;0.30;;;13.40;99.90;;;;;;10100056;28;20028;-65
2024/04/01 05:11:47;;;;;;;1.35;0.40;;;13.50;99.90;;;;;;10096874;28;20055;-67
2024/04/01 05:16:38;;;;;;;0.40;0.40;;;13.50;99.90;;;;;;10099224;28;20402;-65
2024/04/01 05:21:29;;;;;;;0.38;0.35;;;13.50;99.90;;;;;;10095685;28;20045;-65
2024/04/01 05:26:20;;;;;;;0.82;0.50;;;13.50;99.90;;;;;;10107293;28;20029;-66
2024/04/01 05:31:10;;;;;;;1.38;0.95;;;13.50;99.90;;;;;;10098905;28;20045;-66
2024/04/01 05:36:02;;;;;;;0.30;0.30;;;13.60;99.90;;;;;;10101245;28;20041;-65
2024/04/01 05:40:52;;;;;;;1.05;0.70;;;13.60;99.90;;;;;;10098250;28;20029;-65
2024/04/01 05:45:43;;;;;;;0.50;0.30;;;13.60;99.90;;;;;;10099259;28;20017;-65
2024/04/01 05:50:34;;;;;;;0.63;0.40;;;13.50;99.90;;;;;;10093894;28;20123;-66
2024/04/01 05:55:24;;;;;;;0.70;0.40;;;13.50;99.90;;;;;;10099262;28;20046;-65
2024/04/01 06:00:15;;;;;;;0.82;0.70;;;13.50;99.90;;;;;;10097883;28;20399;-65
2024/04/01 06:05:06;;;;;;;3.30;1.20;;;13.40;99.90;;;;;;10100464;28;20094;-66
2024/04/01 06:10:00;;;;;;;1.23;0.88;;;13.40;99.90;;;;;;10097186;28;20068;-65
2024/04/01 06:14:51;;;;;;;1.80;0.82;;;13.40;99.90;;;;;;10097728;28;20553;-65
2024/04/01 06:19:42;;;;;;;1.27;0.82;;;13.30;99.90;;;;;;10096814;28;20109;-65
2024/04/01 06:24:32;;;;;;;1.05;0.80;;;13.20;99.90;;;;;;10079382;28;20021;-65
2024/04/01 06:29:23;;;;;;;2.05;0.60;;;13.30;99.90;;;;;;10096518;28;20111;-65
2024/04/01 06:34:13;;;;;;;1.27;0.70;;;13.20;99.90;;;;;;10086121;28;20036;-65
2024/04/01 06:39:05;;;;;;;0.75;0.50;;;13.30;99.90;;;;;;10096163;28;20481;-66
2024/04/01 06:43:55;;;;;;;2.60;0.60;;;13.30;99.90;;;;;;10091428;28;20025;-65
2024/04/01 06:48:46;;;;;;;0.45;0.45;;;13.30;99.90;;;;;;10092137;28;20124;-66
2024/04/01 06:53:37;;;;;;;1.55;0.70;;;13.30;99.90;;;;;;10096350;28;20705;-66
2024/04/01 06:58:27;;;;;;;0.50;0.50;;;13.40;99.90;;;;;;10096724;28;20032;-65
2024/04/01 07:03:18;;;;;;;1.10;0.60;;;13.30;99.90;;;;;;10095986;28;20021;-66
2024/04/01 07:08:09;;;;;;;0.88;0.60;;;13.20;99.90;;;;;;10094115;28;20037;-67
2024/04/01 07:13:00;;;;;;;0.63;0.60;;;13.30;99.90;;;;;;10096392;28;20139;-68
2024/04/01 07:17:51;;;;;;;2.75;0.80;;;13.20;99.90;;;;;;10088568;28;20316;-65
2024/04/01 07:22:41;;;;;;;1.50;0.65;;;13.20;99.90;;;;;;10095222;28;20025;-65
2024/04/01 07:27:35;;;;;;;1.05;0.68;;;13.20;99.90;;;;;;10095364;28;20029;-66
2024/04/01 07:32:26;;;;;;;0.63;0.55;;;13.20;99.90;;;;;;10095291;28;20041;-66
2024/04/01 07:37:17;;;;;;;0.82;0.50;;;13.20;99.90;;;;;;10094866;28;20025;-65
2024/04/01 07:42:07;;;;;;;0.68;0.47;;;13.20;99.90;;;;;;10085387;28;20040;-65
2024/04/01 07:46:58;;;;;;;1.05;0.50;;;13.30;99.90;;;;;;10098126;28;20368;-66
2024/04/01 07:51:50;;;;;;;2.42;0.60;;;13.20;99.90;;;;;;10102675;28;20498;-65
2024/04/01 07:56:41;;;;;;;1.02;0.57;;;13.30;99.90;;;;;;10112581;28;20079;-65
2024/04/01 08:01:32;;;;;;;0.40;0.30;;;13.30;99.90;;;;;;10104275;28;20029;-65
2024/04/01 08:06:22;;;;;;;0.73;0.50;;;13.30;99.90;;;;;;10101503;28;20050;-65
2024/04/01 08:11:13;;;;;;;0.43;0.30;;;13.30;99.90;;;;;;10101622;28;20042;-66
2024/04/01 08:16:05;;;;;;;0.47;0.40;;;13.30;99.90;;;;;;10102149;28;20574;-65
2024/04/01 08:20:57;;;;;;;0.50;0.40;;;13.20;99.90;;;;;;10101214;28;20168;-65
2024/04/01 08:25:48;;;;;;;0.70;0.30;;;13.30;99.90;;;;;;10101653;28;20049;-67
2024/04/01 08:30:39;;;;;;;0.22;0.22;;;13.40;99.90;;;;;;10101012;28;20084;-66
2024/04/01 08:35:30;;;;;;;0.85;0.25;;;13.40;99.90;;;;;;10101103;28;20028;-65
2024/04/01 08:40:21;;;;;;;0.63;0.40;;;13.20;99.90;;;;;;10095516;28;20039;-65
2024/04/01 08:45:14;;;;;;;1.50;0.40;;;13.20;99.90;;;;;;10105458;28;20104;-65
2024/04/01 08:50:08;;;;;;;0.40;0.20;;;13.10;99.90;;;;;;10100140;28;20083;-65
2024/04/01 08:54:58;;;;;;;0.30;0.30;;;13.10;99.90;;;;;;10102224;28;20056;-66
2024/04/01 08:59:49;;;;;;;0.57;0.30;;;13.00;99.90;;;;;;10104847;28;20036;-66
2024/04/01 09:04:40;;;;;;;0.22;0.15;;;12.90;99.90;;;;;;10100238;28;20029;-65
2024/04/01 09:09:31;;;;;;;2.17;0.15;;;13.00;99.90;;;;;;10099855;28;20071;-65
2024/04/01 09:14:21;;;;;;;0.70;0.20;;;12.80;99.90;;;;;;10099876;28;20041;-65
2024/04/01 09:19:12;;;;;;;0.40;0.10;;;12.80;99.90;;;;;;10098670;28;20041;-66
2024/04/01 09:24:03;;;;;;;0.90;0.30;;;12.70;99.90;;;;;;10098537;28;20032;-65
2024/04/01 09:28:54;;;;;;;0.40;0.30;;;12.50;99.90;;;;;;10104532;28;20025;-66
2024/04/01 09:33:45;;;;;;;0.88;0.30;;;12.30;99.90;;;;;;10104208;28;20037;-65
2024/04/01 09:38:35;;;;;;;0.52;0.35;;;12.40;99.90;;;;;;10099789;28;20108;-66
2024/04/01 09:43:31;;;;;;;0.38;0.10;;;12.50;99.90;;;;;;10099080;28;20037;-67
2024/04/01 09:48:25;;;;;;;0.88;0.38;;;12.50;99.90;;;;;;10098314;28;20021;-65
2024/04/01 09:53:16;;;;;;;1.65;0.50;;;12.40;99.90;;;;;;10098266;28;20032;-65
2024/04/01 09:58:32;;;;;;;1.50;0.70;;;12.50;99.90;;;;;;10085812;28;20021;-65
2024/04/01 10:03:26;;;;;;;;;;;12.50;99.90;;;;;;10097954;28;20025;-65
2024/04/01 10:08:47;;;;;;;1.80;0.47;;;12.60;99.90;;;;;;10092058;28;19943;-66
2024/04/01 10:13:56;;;;;;;1.17;0.20;;;12.70;99.90;;;;;;10098003;28;20037;-67
2024/04/01 10:19:15;;;;;;;0.55;0.30;;;12.50;99.90;;;;;;10096596;28;20128;-65
2024/04/01 10:24:30;;;;;;;0.30;0.20;;;12.40;99.90;;;;;;10097145;28;20032;-65
2024/04/01 10:29:42;;;;;;;1.38;0.50;;;12.40;99.90;;;;;;10096231;28;20188;-66
2024/04/01 10:35:09;;;;;;;0.32;0.28;;;12.30;99.90;;;;;;10096443;28;20465;-66
2024/04/01 10:40:17;;;;;;;0.47;0.30;;;12.20;99.90;;;;;;10095825;28;20438;-66
2024/04/01 10:45:11;;;;;;;0.60;0.40;;;12.30;99.90;;;;;;10097025;28;20071;-67
2024/04/01 10:50:04;;;;;;;0.30;0.17;;;12.30;99.90;;;;;;10095736;28;20532;-66
2024/04/01 10:55:01;;;;;;;0.30;0.20;;;12.30;99.90;;;;;;10096247;28;20376;-69
2024/04/01 11:00:10;;;;;;;0.63;0.50;;;12.40;99.90;;;;;;10101577;28;20039;-68
2024/04/01 11:05:25;;;;;;;1.17;0.28;;;12.40;99.90;;;;;;10092446;28;20056;-69
2024/04/01 11:10:39;;;;;;;0.47;0.30;;;12.40;99.90;;;;;;10111036;28;20033;-67
2024/04/01 11:15:29;;;;;;;1.48;0.30;;;12.50;99.90;;;;;;10096372;28;20195;-66
2024/04/01 11:21:05;;;;;;;0.90;0.43;;;12.50;99.90;;;;;;10095912;28;20191;-66
2024/04/01 11:26:29;;;;;;;0.82;0.30;;;12.70;99.90;;;;;;10091226;28;20045;-65
2024/04/01 11:31:26;;;;;;;1.00;0.30;;;12.50;99.90;;;;;;10103076;28;20033;-68
2024/04/01 11:36:24;;;;;;;0.10;0.10;;;12.50;99.90;;;;;;10103774;28;20078;-66
2024/04/01 11:41:17;;;;;;;0.20;0.20;;;12.50;99.90;;;;;;10103054;28;20581;-64
2024/04/01 11:46:11;;;;;;;0.17;0.10;;;12.40;99.90;;;;;;10102919;28;20033;-66
2024/04/01 11:51:02;;;;;;;0.28;0.17;;;12.50;99.90;;;;;;10099137;28;20036;-65
2024/04/01 11:55:54;;;;;;;0.45;0.30;;;12.60;99.90;;;;;;10097693;28;20070;-65
2024/04/01 12:00:55;;;;;;;0.47;0.20;;;12.70;99.90;;;;;;10106381;28;20037;-65
2024/04/01 12:05:51;;;;;;;0.55;0.28;;;12.80;99.90;;;;;;10102728;28;20037;-65
2024/04/01 12:10:46;;;;;;;0.25;0.10;;;12.80;99.90;;;;;;10101884;28;20084;-67
2024/04/01 12:15:37;;;;;;;0.32;0.20;;;12.80;99.90;;;;;;10108929;28;20116;-66
2024/04/01 12:20:37;;;;;;;0.40;0.20;;;12.80;99.90;;;;;;10101230;28;20135;-66
2024/04/01 12:25:28;;;;;;;1.27;0.30;;;12.70;99.90;;;;;;10102014;28;20598;-65
2024/04/01 12:30:20;;;;;;;0.65;0.20;;;12.80;99.90;;;;;;10101401;28;20028;-64
2024/04/01 12:35:12;;;;;;;0.43;0.20;;;12.90;99.90;;;;;;10100937;28;20025;-65
2024/04/01 12:40:03;;;;;;;0.10;0.10;;;13.00;99.90;;;;;;10101184;28;20028;-66
2024/04/01 12:44:54;;;;;;;0.30;0.20;;;13.00;99.90;;;;;;10094592;28;20506;-65
2024/04/01 12:49:45;;;;;;;0.30;0.30;;;13.00;99.90;;;;;;10100380;28;20037;-64
2024/04/01 12:55:08;;;;;;;0.25;0.22;;;13.10;99.90;;;;;;10102612;28;20044;-65
2024/04/01 13:00:07;;;;;;;0.17;0.17;;;13.00;99.90;;;;;;10090572;28;20505;-65
2024/04/01 13:05:25;;;;;;;0.47;0.28;;;13.00;99.90;;;;;;10100407;28;20513;-65
2024/04/01 13:10:26;;;;;;;0.30;0.30;;;13.00;99.90;;;;;;10099424;28;20037;-67
2024/04/01 13:15:29;;;;;;;0.43;0.30;;;13.00;99.90;;;;;;10115053;28;20043;-65
2024/04/01 13:20:39;;;;;;;1.45;0.70;;;13.00;99.90;;;;;;10098091;28;20041;-65
2024/04/01 13:25:33;;;;;;;2.35;0.60;;;13.00;99.90;;;;;;10096554;28;20029;-65
2024/04/01 13:30:54;;;;;;;1.52;0.40;;;13.00;99.90;;;;;;10099165;28;20098;-64
2024/04/01 13:35:57;;;;;;;0.60;0.35;;;13.00;99.90;;;;;;10093888;28;21185;-64
2024/04/01 13:40:54;;;;;;;1.33;0.30;;;13.00;99.90;;;;;;10082021;28;20024;-65
2024/04/01 13:45:50;;;;;;;0.95;0.55;;;13.10;99.90;;;;;;10097413;28;20029;-66
2024/04/01 13:51:17;;;;;;;1.08;0.43;;;13.20;99.90;;;;;;10097548;28;20060;-65
2024/04/01 13:56:27;;;;;;;1.90;0.50;;;13.10;99.90;;;;;;10096347;28;20044;-65
2024/04/01 14:01:50;;;;;;;0.70;0.43;;;13.20;99.90;;;;;;10089398;28;20028;-65
2024/04/01 14:07:08;;;;;;;0.80;0.30;;;13.30;99.90;;;;;;10092874;28;20108;-65
2024/04/01 14:12:20;;;;;;;0.55;0.43;;;13.70;99.90;;;;;;10097942;28;20071;-66
2024/04/01 14:17:26;;;;;;;0.63;0.40;;;13.90;99.90;;;;;;10089041;28;20041;-67
2024/04/01 14:22:17;;;;;;;0.90;0.25;;;13.90;99.90;;;;;;10097417;28;20364;-68
2024/04/01 14:27:09;;;;;;;0.77;0.50;;;13.90;99.90;;;;;;10096927;28;20032;-65
2024/04/01 14:32:01;;;;;;;1.20;0.55;;;13.80;99.90;;;;;;10096880;28;20029;-67
2024/04/01 14:36:53;;;;;;;1.45;0.40;;;13.80;99.90;;;;;;10089309;28;20034;-65
2024/04/01 14:41:43;;;;;;;1.25;0.40;;;13.80;99.90;;;;;;10091541;28;20470;-66
2024/04/01 14:46:35;;;;;;;1.23;0.70;;;13.80;99.90;;;;;;10095742;28;20067;-64
2024/04/01 14:51:26;;;;;;;0.95;0.50;;;14.00;99.90;;;;;;10092394;28;20485;-64
2024/04/01 14:56:17;;;;;;;0.75;0.43;;;14.00;99.90;;;;;;10098732;28;20024;-64
2024/04/01 15:01:08;;;;;;;0.30;0.30;;;13.90;99.90;;;;;;10091201;28;20139;-67
2024/04/01 15:05:59;;;;;;;1.20;0.65;;;13.80;99.90;;;;;;10097706;28;20532;-65
2024/04/01 15:10:54;;;;;;;1.38;1.10;;;13.80;99.90;;;;;;10094142;28;20037;-66
2024/04/01 15:15:45;;;;;;;0.73;0.22;;;13.70;99.90;;;;;;10095418;28;20033;-65
2024/04/01 15:20:36;;;;;;;3.78;1.42;;;13.90;99.90;;;;;;10094875;28;20506;-65
2024/04/01 15:25:28;;;;;;;1.05;0.60;;;13.90;99.90;;;;;;10095729;28;20025;-65
2024/04/01 15:30:19;;;;;;;0.68;0.32;;;13.90;99.90;;;;;;10093323;28;20128;-65
2024/04/01 15:35:10;;;;;;;1.00;0.60;;;13.80;99.90;;;;;;10094870;28;20162;-64
2024/04/01 15:40:04;;;;;;;1.90;0.50;;;13.80;99.90;;;;;;10095084;28;20025;-65
2024/04/01 15:44:55;;;;;;;0.40;0.30;;;13.80;99.90;;;;;;10085251;28;20156;-65
2024/04/01 15:49:46;;;;;;;0.63;0.40;;;13.60;99.90;;;;;;10094637;28;20037;-65
2024/04/01 15:54:37;;;;;;;0.30;0.30;;;13.70;99.90;;;;;;10109717;28;20022;-66
2024/04/01 15:59:28;;;;;;;1.10;0.50;;;13.70;99.90;;;;;;10100662;28;20099;-67
2024/04/01 16:04:20;;;;;;;0.38;0.38;;;13.70;99.90;;;;;;10091946;28;20383;-66
2024/04/01 16:09:11;;;;;;;0.57;0.40;;;13.80;99.90;;;;;;10096302;28;20036;-67
2024/04/01 16:14:03;;;;;;;1.60;0.40;;;13.70;99.90;;;;;;10101317;28;20037;-66
2024/04/01 16:19:10;;;;;;;0.40;0.32;;;13.70;99.90;;;;;;10100996;28;20048;-65
2024/04/01 16:24:06;;;;;;;2.55;0.63;;;13.70;99.90;;;;;;10092664;28;20025;-66
2024/04/01 16:29:06;;;;;;;1.25;0.63;;;13.70;99.90;;;;;;10094291;28;20478;-65
2024/04/01 16:33:57;;;;;;;1.05;0.55;;;13.90;99.90;;;;;;10099716;28;20033;-65
2024/04/01 16:38:48;;;;;;;1.13;0.80;;;13.90;99.90;;;;;;10101016;28;20487;-66
2024/04/01 16:43:42;;;;;;;1.38;0.40;;;13.90;99.90;;;;;;10100000;28;20855;-64
2024/04/01 16:48:33;;;;;;;0.40;0.38;;;13.90;99.90;;;;;;10099763;28;20445;-66
2024/04/01 16:53:28;;;;;;;1.00;0.35;;;13.90;99.90;;;;;;10099387;28;20075;-67
2024/04/01 16:58:21;;;;;;;1.60;0.60;;;14.10;99.90;;;;;;10102639;28;20537;-63
2024/04/01 17:03:13;;;;;;;0.70;0.38;;;14.10;99.90;;;;;;10092114;28;20518;-64
2024/04/01 17:08:05;;;;;;;1.17;0.50;;;14.10;99.90;;;;;;10099257;28;20033;-63
2024/04/01 17:12:55;;;;;;;1.42;0.52;;;14.00;99.90;;;;;;10099234;28;20434;-63
2024/04/01 17:17:48;;;;;;;0.75;0.75;;;13.90;99.90;;;;;;10097481;28;20049;-64
2024/04/01 17:22:41;;;;;;;3.97;0.80;;;14.00;99.90;;;;;;10098883;28;20058;-63
2024/04/01 17:27:32;;;;;;;2.08;1.40;;;14.00;99.90;;;;;;10098753;28;20087;-64
2024/04/01 17:32:23;;;;;;;1.25;0.98;;;13.90;99.90;;;;;;10092594;28;20114;-67
2024/04/01 17:37:14;;;;;;;1.58;1.17;;;13.90;99.90;;;;;;10098182;28;20029;-67
2024/04/01 17:42:07;;;;;;;1.65;1.10;;;13.90;99.90;;;;;;10097774;28;20028;-65
2024/04/01 17:46:58;;;;;;;2.38;0.90;;;13.80;99.90;;;;;;10096235;28;20509;-64
2024/04/01 17:51:49;;;;;;;1.30;0.80;;;13.90;99.90;;;;;;10092747;28;20062;-65
2024/04/01 17:56:41;;;;;;;2.30;0.60;;;13.80;99.90;;;;;;10102528;28;20029;-70
2024/04/01 18:01:31;;;;;;;1.88;0.80;;;13.70;99.90;;;;;;10096677;28;20581;-64
2024/04/01 18:06:22;;;;;;;2.08;0.90;;;13.60;99.90;;;;;;10094610;28;20095;-66
2024/04/01 18:11:17;;;;;;;1.52;0.82;;;13.70;99.90;;;;;;10095265;28;20044;-64
2024/04/01 18:16:09;;;;;;;2.65;1.10;;;13.60;99.90;;;;;;10096644;28;20112;-64
2024/04/01 18:21:00;;;;;;;4.00;2.00;;;13.60;99.90;;;;;;10095933;28;20041;-64
2024/04/01 18:25:50;;;;;;;2.08;1.02;;;13.60;99.90;;;;;;10114993;28;20399;-65
2024/04/01 18:30:42;;;;;;;9.05;1.80;;;13.50;99.90;;;;;;10094527;28;20047;-68
2024/04/01 18:35:32;;;;;;;2.20;1.10;;;13.50;99.90;;;;;;10097802;28;20445;-64
2024/04/01 18:40:23;;;;;;;2.10;1.33;;;13.50;99.90;;;;;;10095458;28;20096;-64
2024/04/01 18:45:16;;;;;;;4.95;1.38;;;13.50;99.90;;;;;;10094394;28;20025;-66
2024/04/01 18:50:19;;;;;;;3.92;1.38;;;13.40;99.90;;;;;;10095545;28;20037;-68
2024/04/01 18:55:23;;;;;;;1.50;1.17;;;13.40;99.90;;;;;;10098925;28;20028;-69
2024/04/01 19:00:14;;;;;;;2.92;1.15;;;13.30;99.90;;;;;;10094951;28;20051;-67
2024/04/01 19:05:05;;;;;;;1.23;0.90;;;13.30;99.90;;;;;;10093705;28;20343;-66
2024/04/01 19:09:55;;;;;;;3.55;0.70;;;13.40;99.90;;;;;;10076036;28;20035;-68
2024/04/01 19:14:46;;;;;;;2.42;0.90;;;13.30;99.90;;;;;;10083912;28;20048;-67
2024/04/01 19:19:37;;;;;;;1.27;0.80;;;13.30;99.90;;;;;;10087920;28;20111;-64
2024/04/01 19:24:28;;;;;;;1.58;0.95;;;13.30;99.90;;;;;;10083300;28;20028;-68
2024/04/01 19:29:18;;;;;;;2.38;0.77;;;13.30;99.90;;;;;;10075229;28;20033;-72
2024/04/01 19:34:10;;;;;;;0.65;0.60;;;13.20;99.90;;;;;;10079006;28;20446;-72
2024/04/01 19:39:01;;;;;;;1.52;0.75;;;13.30;99.90;;;;;;10085901;28;20040;-73
2024/04/01 19:43:51;;;;;;;1.23;0.70;;;13.20;99.90;;;;;;10094185;28;20052;-75
2024/04/01 19:48:47;;;;;;;0.95;0.68;;;13.20;99.90;;;;;;10099218;28;20108;-72
2024/04/01 19:53:39;;;;;;;1.02;0.60;;;13.20;99.90;;;;;;10089985;28;20133;-70
2024/04/01 19:58:37;;;;;;;1.35;0.60;;;13.10;99.90;;;;;;10083976;28;20021;-74
2024/04/01 20:03:28;;;;;;;1.35;0.98;;;13.10;99.90;;;;;;10104834;28;20029;-71
2024/04/01 20:08:28;;;;;;;1.55;0.70;;;13.00;99.90;;;;;;10097211;28;20022;-73
2024/04/01 20:13:20;;;;;;;0.98;0.52;;;13.00;99.90;;;;;;10090471;28;20064;-71
2024/04/01 20:18:14;;;;;;;0.73;0.50;;;13.00;99.90;;;;;;10090026;28;20037;-72
2024/04/01 20:23:10;;;;;;;0.63;0.45;;;13.00;99.90;;;;;;10087537;28;20029;-72
2024/04/01 20:28:06;;;;;;;1.00;0.80;;;13.00;99.90;;;;;;10079460;28;20022;-72
2024/04/01 20:32:57;;;;;;;1.83;0.60;;;13.00;99.90;;;;;;10095412;28;20041;-73
2024/04/01 20:37:49;;;;;;;1.13;0.80;;;12.90;99.90;;;;;;10089524;28;20037;-71
2024/04/01 20:43:06;;;;;;;0.30;0.30;;;12.90;99.90;;;;;;10101215;28;20491;-71
2024/04/01 20:47:59;;;;;;;0.80;0.50;;;12.80;99.90;;;;;;10102303;28;20045;-74
2024/04/01 20:52:57;;;;;;;0.52;0.38;;;12.80;99.90;;;;;;10102355;28;20116;-72
2024/04/01 20:57:48;;;;;;;1.25;0.65;;;12.80;99.90;;;;;;10101681;28;20021;-71
2024/04/01 21:02:43;;;;;;;2.67;0.52;;;12.80;99.90;;;;;;10100504;28;20017;-71
2024/04/01 21:07:33;;;;;;;0.82;0.32;;;12.80;99.90;;;;;;10101903;28;20021;-75
2024/04/01 21:12:24;;;;;;;1.55;0.43;;;12.80;99.90;;;;;;10093673;28;20507;-74
2024/04/01 21:17:15;;;;;;;0.93;0.55;;;12.80;99.90;;;;;;10098336;28;20109;-73
2024/04/01 21:22:06;;;;;;;0.73;0.52;;;12.70;99.90;;;;;;10105920;28;20025;-74
2024/04/01 21:27:03;;;;;;;1.55;0.50;;;12.70;99.90;;;;;;10099987;28;20041;-74
2024/04/01 21:31:53;;;;;;;1.10;0.60;;;12.70;99.90;;;;;;10101804;28;20155;-73
2024/04/01 21:36:44;;;;;;;1.88;0.60;;;12.60;99.90;;;;;;10101211;28;20013;-74
2024/04/01 21:41:35;;;;;;;1.10;0.80;;;12.60;99.90;;;;;;10114176;28;20029;-72
2024/04/01 21:46:26;;;;;;;0.45;0.20;;;12.60;99.90;;;;;;10096412;28;20371;-73
2024/04/01 21:51:18;;;;;;;0.50;0.40;;;12.50;99.90;;;;;;10097223;28;20048;-72
2024/04/01 21:56:12;;;;;;;1.15;0.60;;;12.50;99.90;;;;;;10097104;28;20024;-72
2024/04/01 22:01:02;;;;;;;0.50;0.50;;;12.50;99.90;;;;;;10094878;28;20033;-72
2024/04/01 22:05:57;;;;;;;1.05;0.50;;;12.40;99.90;;;;;;10097497;28;20116;-72
2024/04/01 22:10:48;;;;;;;0.85;0.50;;;12.30;99.90;;;;;;10100407;28;20124;-71
2024/04/01 22:15:39;;;;;;;0.50;0.50;;;12.30;99.90;;;;;;10100050;28;20029;-72
2024/04/01 22:20:29;;;;;;;1.48;0.60;;;12.30;99.90;;;;;;10096582;28;20053;-71
2024/04/01 22:25:20;;;;;;;1.17;0.50;;;12.30;99.90;;;;;;10101000;28;20013;-70
2024/04/01 22:30:11;;;;;;;0.75;0.70;;;12.20;99.90;;;;;;10096198;28;20045;-70
2024/04/01 22:35:02;;;;;;;2.05;0.60;;;12.20;99.90;;;;;;10112277;28;20056;-71
2024/04/01 22:39:53;;;;;;;0.93;0.57;;;12.20;99.90;;;;;;10096780;28;20453;-70
2024/04/01 22:44:44;;;;;;;0.73;0.52;;;12.10;99.90;;;;;;10096266;28;20096;-70
2024/04/01 22:49:35;;;;;;;0.95;0.73;;;12.20;99.90;;;;;;10096388;28;20051;-70
2024/04/01 22:54:30;;;;;;;0.95;0.50;;;12.20;99.90;;;;;;10098749;28;20025;-70
2024/04/01 22:59:20;;;;;;;1.55;0.63;;;12.10;99.90;;;;;;10105315;28;20021;-70
2024/04/01 23:04:12;;;;;;;0.93;0.50;;;12.10;99.90;;;;;;10096357;28;20107;-70
2024/04/01 23:09:03;;;;;;;1.27;0.55;;;12.10;99.90;;;;;;10098571;28;20715;-71
2024/04/01 23:13:54;;;;;;;0.70;0.60;;;12.10;99.90;;;;;;10095520;28;20059;-70
2024/04/01 23:18:45;;;;;;;1.10;0.65;;;12.10;99.90;;;;;;10098075;28;20045;-71
2024/04/01 23:23:36;;;;;;;2.97;0.57;;;12.00;99.90;;;;;;10101173;28;20037;-71
2024/04/01 23:28:26;;;;;;;1.92;0.75;;;12.00;99.90;;;;;;10100584;28;20029;-69
2024/04/01 23:33:17;;;;;;;0.70;0.43;;;11.90;99.90;;;;;;10099427;28;20041;-70
2024/04/01 23:38:07;;;;;;;1.25;0.50;;;11.90;99.90;;;;;;10100199;28;20571;-70
2024/04/01 23:42:58;;;;;;;0.65;0.40;;;11.90;99.90;;;;;;10101177;28;20033;-70
2024/04/01 23:47:49;;;;;;;0.40;0.30;;;11.90;99.90;;;;;;10096119;28;20026;-70
2024/04/01 23:52:39;;;;;;;2.35;0.50;;;11.90;99.90;;;;;;10097602;28;20798;-70
2024/04/01 23:57:30;;;;;;;0.50;0.35;;;11.80;99.90;;;;;;10099499;28;20497;-69
